sensor_id;sensor_type;location;lat;lon;timestamp;P1;durP1;ratioP1;P2;durP2;ratioP2
21894;SDS011;11112;51.270;7.224;2023-04-07T00:00:44;11.85;;;9.07;;
21894;SDS011;11112;51.270;7.224;2023-04-07T00:03:12;11.18;;;8.98;;
21894;SDS011;11112;51.270;7.224;2023-04-07T00:05:40;12.98;;;9.18;;
21894;SDS011;11112;51.270;7.224;2023-04-07T00:08:08;11.10;;;8.45;;
21894;SDS011;11112;51.270;7.224;2023-04-07T00:10:38;13.55;;;9.10;;
21894;SDS011;11112;51.270;7.224;2023-04-07T00:13:08;10.20;;;8.57;;
21894;SDS011;11112;51.270;7.224;2023-04-07T00:15:36;11.13;;;8.35;;
21894;SDS011;11112;51.270;7.224;2023-04-07T00:18:05;11.10;;;8.80;;
21894;SDS011;11112;51.270;7.224;2023-04-07T00:20:32;12.00;;;8.93;;
21894;SDS011;11112;51.270;7.224;2023-04-07T00:23:00;11.45;;;9.10;;
21894;SDS011;11112;51.270;7.224;2023-04-07T00:25:36;10.95;;;8.90;;
21894;SDS011;11112;51.270;7.224;2023-04-07T00:28:03;10.55;;;8.50;;
21894;SDS011;11112;51.270;7.224;2023-04-07T00:30:32;11.13;;;8.77;;
21894;SDS011;11112;51.270;7.224;2023-04-07T00:33:00;13.35;;;9.00;;
21894;SDS011;11112;51.270;7.224;2023-04-07T00:35:30;10.65;;;8.98;;
21894;SDS011;11112;51.270;7.224;2023-04-07T00:37:57;10.65;;;8.60;;
21894;SDS011;11112;51.270;7.224;2023-04-07T00:40:25;10.43;;;8.80;;
21894;SDS011;11112;51.270;7.224;2023-04-07T00:42:58;10.13;;;8.60;;
21894;SDS011;11112;51.270;7.224;2023-04-07T00:45:26;10.25;;;8.55;;
21894;SDS011;11112;51.270;7.224;2023-04-07T00:47:57;11.73;;;9.13;;
21894;SDS011;11112;51.270;7.224;2023-04-07T00:50:25;10.70;;;8.77;;
21894;SDS011;11112;51.270;7.224;2023-04-07T00:52:56;11.48;;;8.95;;
21894;SDS011;11112;51.270;7.224;2023-04-07T00:55:26;12.02;;;9.55;;
21894;SDS011;11112;51.270;7.224;2023-04-07T00:57:57;12.95;;;9.65;;
21894;SDS011;11112;51.270;7.224;2023-04-07T01:00:27;11.48;;;9.60;;
21894;SDS011;11112;51.270;7.224;2023-04-07T01:02:58;10.75;;;8.93;;
21894;SDS011;11112;51.270;7.224;2023-04-07T01:05:34;12.63;;;9.52;;
21894;SDS011;11112;51.270;7.224;2023-04-07T01:08:14;14.10;;;9.75;;
21894;SDS011;11112;51.270;7.224;2023-04-07T01:10:58;11.35;;;9.65;;
21894;SDS011;11112;51.270;7.224;2023-04-07T01:13:35;11.85;;;9.90;;
21894;SDS011;11112;51.270;7.224;2023-04-07T01:16:10;13.15;;;10.05;;
21894;SDS011;11112;51.270;7.224;2023-04-07T01:18:53;11.77;;;9.85;;
21894;SDS011;11112;51.270;7.224;2023-04-07T01:21:26;13.48;;;10.35;;
21894;SDS011;11112;51.270;7.224;2023-04-07T01:24:02;11.93;;;10.18;;
21894;SDS011;11112;51.270;7.224;2023-04-07T01:26:50;12.75;;;9.90;;
21894;SDS011;11112;51.270;7.224;2023-04-07T01:32:11;11.02;;;9.52;;
21894;SDS011;11112;51.270;7.224;2023-04-07T01:34:41;11.65;;;10.20;;
21894;SDS011;11112;51.270;7.224;2023-04-07T01:37:11;12.35;;;9.73;;
21894;SDS011;11112;51.270;7.224;2023-04-07T01:39:40;13.65;;;9.95;;
21894;SDS011;11112;51.270;7.224;2023-04-07T01:42:18;11.93;;;9.60;;
21894;SDS011;11112;51.270;7.224;2023-04-07T01:44:48;12.05;;;9.93;;
21894;SDS011;11112;51.270;7.224;2023-04-07T01:47:21;11.65;;;9.35;;
21894;SDS011;11112;51.270;7.224;2023-04-07T01:52:25;11.60;;;8.48;;
21894;SDS011;11112;51.270;7.224;2023-04-07T01:54:53;10.50;;;9.05;;
21894;SDS011;11112;51.270;7.224;2023-04-07T01:57:23;10.65;;;8.80;;
21894;SDS011;11112;51.270;7.224;2023-04-07T01:59:54;10.48;;;9.18;;
21894;SDS011;11112;51.270;7.224;2023-04-07T02:02:22;10.95;;;8.85;;
21894;SDS011;11112;51.270;7.224;2023-04-07T02:04:51;10.73;;;9.27;;
21894;SDS011;11112;51.270;7.224;2023-04-07T02:07:24;10.40;;;8.77;;
21894;SDS011;11112;51.270;7.224;2023-04-07T02:09:57;9.85;;;8.52;;
21894;SDS011;11112;51.270;7.224;2023-04-07T02:12:28;11.10;;;9.20;;
21894;SDS011;11112;51.270;7.224;2023-04-07T02:14:59;10.43;;;8.57;;
21894;SDS011;11112;51.270;7.224;2023-04-07T02:17:26;9.80;;;8.23;;
21894;SDS011;11112;51.270;7.224;2023-04-07T02:19:56;10.50;;;9.40;;
21894;SDS011;11112;51.270;7.224;2023-04-07T02:22:27;12.75;;;9.77;;
21894;SDS011;11112;51.270;7.224;2023-04-07T02:24:56;10.90;;;9.32;;
21894;SDS011;11112;51.270;7.224;2023-04-07T02:27:24;11.82;;;9.75;;
21894;SDS011;11112;51.270;7.224;2023-04-07T02:29:54;11.13;;;9.82;;
21894;SDS011;11112;51.270;7.224;2023-04-07T02:32:24;11.95;;;9.63;;
21894;SDS011;11112;51.270;7.224;2023-04-07T02:34:54;11.88;;;9.90;;
21894;SDS011;11112;51.270;7.224;2023-04-07T02:37:23;12.13;;;10.02;;
21894;SDS011;11112;51.270;7.224;2023-04-07T02:39:52;11.70;;;9.52;;
21894;SDS011;11112;51.270;7.224;2023-04-07T02:42:20;12.27;;;9.82;;
21894;SDS011;11112;51.270;7.224;2023-04-07T02:44:52;12.23;;;9.98;;
21894;SDS011;11112;51.270;7.224;2023-04-07T02:47:24;12.82;;;9.90;;
21894;SDS011;11112;51.270;7.224;2023-04-07T02:49:52;13.32;;;9.70;;
21894;SDS011;11112;51.270;7.224;2023-04-07T02:52:20;11.70;;;10.00;;
21894;SDS011;11112;51.270;7.224;2023-04-07T02:54:50;12.32;;;10.60;;
21894;SDS011;11112;51.270;7.224;2023-04-07T02:57:18;11.95;;;9.98;;
21894;SDS011;11112;51.270;7.224;2023-04-07T02:59:46;11.88;;;10.20;;
21894;SDS011;11112;51.270;7.224;2023-04-07T03:02:13;13.15;;;11.23;;
21894;SDS011;11112;51.270;7.224;2023-04-07T03:04:44;11.85;;;9.43;;
21894;SDS011;11112;51.270;7.224;2023-04-07T03:07:13;12.20;;;10.20;;
21894;SDS011;11112;51.270;7.224;2023-04-07T03:09:41;12.90;;;10.57;;
21894;SDS011;11112;51.270;7.224;2023-04-07T03:12:10;12.70;;;10.63;;
21894;SDS011;11112;51.270;7.224;2023-04-07T03:14:38;12.45;;;10.70;;
21894;SDS011;11112;51.270;7.224;2023-04-07T03:17:06;13.75;;;11.07;;
21894;SDS011;11112;51.270;7.224;2023-04-07T03:19:37;13.13;;;10.82;;
21894;SDS011;11112;51.270;7.224;2023-04-07T03:22:07;14.52;;;11.30;;
21894;SDS011;11112;51.270;7.224;2023-04-07T03:24:34;13.25;;;10.88;;
21894;SDS011;11112;51.270;7.224;2023-04-07T03:27:03;13.18;;;11.63;;
21894;SDS011;11112;51.270;7.224;2023-04-07T03:29:31;13.95;;;11.52;;
21894;SDS011;11112;51.270;7.224;2023-04-07T03:31:58;14.90;;;12.18;;
21894;SDS011;11112;51.270;7.224;2023-04-07T03:34:26;12.38;;;10.68;;
21894;SDS011;11112;51.270;7.224;2023-04-07T03:36:57;13.60;;;11.00;;
21894;SDS011;11112;51.270;7.224;2023-04-07T03:39:28;13.77;;;11.45;;
21894;SDS011;11112;51.270;7.224;2023-04-07T03:41:56;13.68;;;11.25;;
21894;SDS011;11112;51.270;7.224;2023-04-07T03:44:26;12.70;;;10.63;;
21894;SDS011;11112;51.270;7.224;2023-04-07T03:46:59;11.80;;;9.80;;
21894;SDS011;11112;51.270;7.224;2023-04-07T03:49:27;14.18;;;11.38;;
21894;SDS011;11112;51.270;7.224;2023-04-07T03:51:56;14.32;;;11.38;;
21894;SDS011;11112;51.270;7.224;2023-04-07T03:54:28;14.30;;;11.65;;
21894;SDS011;11112;51.270;7.224;2023-04-07T03:56:56;15.88;;;12.98;;
21894;SDS011;11112;51.270;7.224;2023-04-07T03:59:26;16.50;;;12.70;;
21894;SDS011;11112;51.270;7.224;2023-04-07T04:01:53;14.75;;;12.25;;
21894;SDS011;11112;51.270;7.224;2023-04-07T04:04:24;14.90;;;12.45;;
21894;SDS011;11112;51.270;7.224;2023-04-07T04:06:52;16.75;;;13.90;;
21894;SDS011;11112;51.270;7.224;2023-04-07T04:09:20;16.17;;;13.75;;
21894;SDS011;11112;51.270;7.224;2023-04-07T04:11:49;16.33;;;13.73;;
21894;SDS011;11112;51.270;7.224;2023-04-07T04:14:17;16.05;;;13.70;;
21894;SDS011;11112;51.270;7.224;2023-04-07T04:16:45;16.10;;;13.13;;
21894;SDS011;11112;51.270;7.224;2023-04-07T04:19:13;17.13;;;14.07;;
21894;SDS011;11112;51.270;7.224;2023-04-07T04:21:41;18.23;;;14.18;;
21894;SDS011;11112;51.270;7.224;2023-04-07T04:24:09;18.00;;;14.43;;
21894;SDS011;11112;51.270;7.224;2023-04-07T04:26:37;17.02;;;13.93;;
21894;SDS011;11112;51.270;7.224;2023-04-07T04:29:06;19.27;;;15.18;;
21894;SDS011;11112;51.270;7.224;2023-04-07T04:31:34;16.98;;;14.18;;
21894;SDS011;11112;51.270;7.224;2023-04-07T04:34:02;18.85;;;14.73;;
21894;SDS011;11112;51.270;7.224;2023-04-07T04:36:30;18.15;;;14.65;;
21894;SDS011;11112;51.270;7.224;2023-04-07T04:38:59;19.23;;;14.93;;
21894;SDS011;11112;51.270;7.224;2023-04-07T04:41:26;18.15;;;14.95;;
21894;SDS011;11112;51.270;7.224;2023-04-07T04:43:55;17.88;;;13.88;;
21894;SDS011;11112;51.270;7.224;2023-04-07T04:46:24;18.00;;;14.85;;
21894;SDS011;11112;51.270;7.224;2023-04-07T04:48:54;17.95;;;14.73;;
21894;SDS011;11112;51.270;7.224;2023-04-07T04:51:23;19.42;;;14.07;;
21894;SDS011;11112;51.270;7.224;2023-04-07T04:53:51;19.17;;;14.30;;
21894;SDS011;11112;51.270;7.224;2023-04-07T04:56:20;16.70;;;13.38;;
21894;SDS011;11112;51.270;7.224;2023-04-07T04:58:48;16.42;;;13.25;;
21894;SDS011;11112;51.270;7.224;2023-04-07T05:01:16;17.15;;;13.20;;
21894;SDS011;11112;51.270;7.224;2023-04-07T05:03:45;14.30;;;12.13;;
21894;SDS011;11112;51.270;7.224;2023-04-07T05:06:13;15.38;;;12.35;;
21894;SDS011;11112;51.270;7.224;2023-04-07T05:08:41;15.98;;;12.82;;
21894;SDS011;11112;51.270;7.224;2023-04-07T05:11:10;17.10;;;13.25;;
21894;SDS011;11112;51.270;7.224;2023-04-07T05:13:42;15.55;;;12.90;;
21894;SDS011;11112;51.270;7.224;2023-04-07T05:16:10;17.50;;;13.40;;
21894;SDS011;11112;51.270;7.224;2023-04-07T05:18:38;15.82;;;12.60;;
21894;SDS011;11112;51.270;7.224;2023-04-07T05:21:08;16.05;;;12.90;;
21894;SDS011;11112;51.270;7.224;2023-04-07T05:23:36;14.93;;;12.05;;
21894;SDS011;11112;51.270;7.224;2023-04-07T05:26:03;16.63;;;13.00;;
21894;SDS011;11112;51.270;7.224;2023-04-07T05:28:31;17.75;;;12.55;;
21894;SDS011;11112;51.270;7.224;2023-04-07T05:30:59;15.38;;;12.20;;
21894;SDS011;11112;51.270;7.224;2023-04-07T05:33:27;15.10;;;12.05;;
21894;SDS011;11112;51.270;7.224;2023-04-07T05:35:55;16.52;;;12.68;;
21894;SDS011;11112;51.270;7.224;2023-04-07T05:38:25;17.25;;;13.32;;
21894;SDS011;11112;51.270;7.224;2023-04-07T05:40:53;17.52;;;13.63;;
21894;SDS011;11112;51.270;7.224;2023-04-07T05:43:21;15.82;;;13.25;;
21894;SDS011;11112;51.270;7.224;2023-04-07T05:45:49;17.40;;;13.25;;
21894;SDS011;11112;51.270;7.224;2023-04-07T05:48:17;17.13;;;13.15;;
21894;SDS011;11112;51.270;7.224;2023-04-07T05:50:46;17.67;;;13.15;;
21894;SDS011;11112;51.270;7.224;2023-04-07T05:53:13;16.38;;;12.13;;
21894;SDS011;11112;51.270;7.224;2023-04-07T05:55:43;16.08;;;12.10;;
21894;SDS011;11112;51.270;7.224;2023-04-07T05:58:11;16.02;;;12.70;;
21894;SDS011;11112;51.270;7.224;2023-04-07T06:00:39;14.95;;;12.25;;
21894;SDS011;11112;51.270;7.224;2023-04-07T06:03:08;14.73;;;12.00;;
21894;SDS011;11112;51.270;7.224;2023-04-07T06:05:36;14.38;;;11.40;;
21894;SDS011;11112;51.270;7.224;2023-04-07T06:08:07;14.57;;;10.80;;
21894;SDS011;11112;51.270;7.224;2023-04-07T06:10:35;14.93;;;11.77;;
21894;SDS011;11112;51.270;7.224;2023-04-07T06:13:07;15.98;;;11.77;;
21894;SDS011;11112;51.270;7.224;2023-04-07T06:15:34;16.20;;;12.07;;
21894;SDS011;11112;51.270;7.224;2023-04-07T06:18:03;15.77;;;11.88;;
21894;SDS011;11112;51.270;7.224;2023-04-07T06:20:32;16.23;;;12.00;;
21894;SDS011;11112;51.270;7.224;2023-04-07T06:23:01;15.82;;;12.48;;
21894;SDS011;11112;51.270;7.224;2023-04-07T06:25:31;15.70;;;11.52;;
21894;SDS011;11112;51.270;7.224;2023-04-07T06:27:58;15.45;;;11.80;;
21894;SDS011;11112;51.270;7.224;2023-04-07T06:30:29;16.45;;;12.15;;
21894;SDS011;11112;51.270;7.224;2023-04-07T06:32:57;14.05;;;10.00;;
21894;SDS011;11112;51.270;7.224;2023-04-07T06:35:27;16.65;;;11.32;;
21894;SDS011;11112;51.270;7.224;2023-04-07T06:37:56;14.77;;;10.50;;
21894;SDS011;11112;51.270;7.224;2023-04-07T06:40:26;16.23;;;10.52;;
21894;SDS011;11112;51.270;7.224;2023-04-07T06:42:53;39.88;;;10.45;;
21894;SDS011;11112;51.270;7.224;2023-04-07T06:45:23;30.13;;;10.77;;
21894;SDS011;11112;51.270;7.224;2023-04-07T06:47:52;30.27;;;9.35;;
21894;SDS011;11112;51.270;7.224;2023-04-07T06:50:19;39.92;;;11.10;;
21894;SDS011;11112;51.270;7.224;2023-04-07T06:52:47;20.27;;;9.27;;
21894;SDS011;11112;51.270;7.224;2023-04-07T06:55:15;29.02;;;8.85;;
21894;SDS011;11112;51.270;7.224;2023-04-07T06:57:43;24.35;;;9.00;;
21894;SDS011;11112;51.270;7.224;2023-04-07T07:00:11;16.67;;;8.15;;
21894;SDS011;11112;51.270;7.224;2023-04-07T07:02:39;38.78;;;9.85;;
21894;SDS011;11112;51.270;7.224;2023-04-07T07:05:08;19.98;;;8.35;;
21894;SDS011;11112;51.270;7.224;2023-04-07T07:07:36;41.22;;;8.60;;
21894;SDS011;11112;51.270;7.224;2023-04-07T07:10:04;33.85;;;9.10;;
21894;SDS011;11112;51.270;7.224;2023-04-07T07:12:34;30.38;;;8.52;;
21894;SDS011;11112;51.270;7.224;2023-04-07T07:15:02;18.77;;;7.97;;
21894;SDS011;11112;51.270;7.224;2023-04-07T07:17:31;24.98;;;8.77;;
21894;SDS011;11112;51.270;7.224;2023-04-07T07:20:00;26.13;;;9.18;;
21894;SDS011;11112;51.270;7.224;2023-04-07T07:22:29;18.08;;;8.02;;
21894;SDS011;11112;51.270;7.224;2023-04-07T07:24:57;17.83;;;8.18;;
21894;SDS011;11112;51.270;7.224;2023-04-07T07:27:25;16.63;;;7.75;;
21894;SDS011;11112;51.270;7.224;2023-04-07T07:29:53;24.20;;;7.90;;
21894;SDS011;11112;51.270;7.224;2023-04-07T07:32:24;23.73;;;8.07;;
21894;SDS011;11112;51.270;7.224;2023-04-07T07:34:51;50.50;;;9.13;;
21894;SDS011;11112;51.270;7.224;2023-04-07T07:37:18;39.97;;;8.50;;
21894;SDS011;11112;51.270;7.224;2023-04-07T07:39:48;39.50;;;9.70;;
21894;SDS011;11112;51.270;7.224;2023-04-07T07:42:16;24.77;;;9.90;;
21894;SDS011;11112;51.270;7.224;2023-04-07T07:44:44;37.58;;;11.80;;
21894;SDS011;11112;51.270;7.224;2023-04-07T07:47:13;33.25;;;11.13;;
21894;SDS011;11112;51.270;7.224;2023-04-07T07:49:44;28.55;;;8.82;;
21894;SDS011;11112;51.270;7.224;2023-04-07T07:52:16;29.27;;;10.30;;
21894;SDS011;11112;51.270;7.224;2023-04-07T07:54:48;23.48;;;9.27;;
21894;SDS011;11112;51.270;7.224;2023-04-07T07:57:18;22.95;;;8.70;;
21894;SDS011;11112;51.270;7.224;2023-04-07T07:59:52;22.85;;;9.65;;
21894;SDS011;11112;51.270;7.224;2023-04-07T08:02:30;20.35;;;9.45;;
21894;SDS011;11112;51.270;7.224;2023-04-07T08:05:00;19.77;;;9.02;;
21894;SDS011;11112;51.270;7.224;2023-04-07T08:07:31;22.90;;;8.77;;
21894;SDS011;11112;51.270;7.224;2023-04-07T08:10:05;23.55;;;8.55;;
21894;SDS011;11112;51.270;7.224;2023-04-07T08:12:34;20.27;;;8.73;;
21894;SDS011;11112;51.270;7.224;2023-04-07T08:15:04;18.17;;;9.13;;
21894;SDS011;11112;51.270;7.224;2023-04-07T08:17:35;15.45;;;8.93;;
21894;SDS011;11112;51.270;7.224;2023-04-07T08:20:04;14.45;;;8.90;;
21894;SDS011;11112;51.270;7.224;2023-04-07T08:22:34;13.50;;;9.10;;
21894;SDS011;11112;51.270;7.224;2023-04-07T08:25:08;15.05;;;9.18;;
21894;SDS011;11112;51.270;7.224;2023-04-07T08:27:36;12.15;;;7.85;;
21894;SDS011;11112;51.270;7.224;2023-04-07T08:30:09;13.48;;;7.88;;
21894;SDS011;11112;51.270;7.224;2023-04-07T08:32:40;11.32;;;8.20;;
21894;SDS011;11112;51.270;7.224;2023-04-07T08:35:10;10.93;;;7.40;;
21894;SDS011;11112;51.270;7.224;2023-04-07T08:37:38;10.98;;;7.55;;
21894;SDS011;11112;51.270;7.224;2023-04-07T08:40:12;11.20;;;7.78;;
21894;SDS011;11112;51.270;7.224;2023-04-07T08:42:45;10.07;;;7.53;;
21894;SDS011;11112;51.270;7.224;2023-04-07T08:45:15;12.63;;;8.37;;
21894;SDS011;11112;51.270;7.224;2023-04-07T08:47:45;11.27;;;7.88;;
21894;SDS011;11112;51.270;7.224;2023-04-07T08:50:16;12.38;;;8.45;;
21894;SDS011;11112;51.270;7.224;2023-04-07T08:52:49;12.32;;;8.20;;
21894;SDS011;11112;51.270;7.224;2023-04-07T08:55:24;14.50;;;8.57;;
21894;SDS011;11112;51.270;7.224;2023-04-07T08:57:55;13.57;;;9.55;;
21894;SDS011;11112;51.270;7.224;2023-04-07T09:00:24;13.73;;;9.60;;
21894;SDS011;11112;51.270;7.224;2023-04-07T09:02:52;16.60;;;11.70;;
21894;SDS011;11112;51.270;7.224;2023-04-07T09:05:20;20.05;;;12.60;;
21894;SDS011;11112;51.270;7.224;2023-04-07T09:07:49;17.92;;;12.88;;
21894;SDS011;11112;51.270;7.224;2023-04-07T09:10:17;21.63;;;13.90;;
21894;SDS011;11112;51.270;7.224;2023-04-07T09:12:46;21.13;;;13.95;;
21894;SDS011;11112;51.270;7.224;2023-04-07T09:15:14;19.88;;;13.95;;
21894;SDS011;11112;51.270;7.224;2023-04-07T09:17:41;21.90;;;13.88;;
21894;SDS011;11112;51.270;7.224;2023-04-07T09:20:10;20.25;;;13.45;;
21894;SDS011;11112;51.270;7.224;2023-04-07T09:22:40;18.85;;;13.57;;
21894;SDS011;11112;51.270;7.224;2023-04-07T09:25:11;16.85;;;11.88;;
21894;SDS011;11112;51.270;7.224;2023-04-07T09:27:56;19.17;;;12.52;;
21894;SDS011;11112;51.270;7.224;2023-04-07T09:30:36;20.70;;;13.07;;
21894;SDS011;11112;51.270;7.224;2023-04-07T09:33:03;17.88;;;12.40;;
21894;SDS011;11112;51.270;7.224;2023-04-07T09:35:31;19.25;;;11.23;;
21894;SDS011;11112;51.270;7.224;2023-04-07T09:38:00;15.30;;;10.63;;
21894;SDS011;11112;51.270;7.224;2023-04-07T09:40:32;13.98;;;10.25;;
21894;SDS011;11112;51.270;7.224;2023-04-07T09:43:03;13.50;;;9.27;;
21894;SDS011;11112;51.270;7.224;2023-04-07T09:45:32;14.75;;;8.98;;
21894;SDS011;11112;51.270;7.224;2023-04-07T09:48:03;12.05;;;8.00;;
21894;SDS011;11112;51.270;7.224;2023-04-07T09:50:33;12.88;;;7.75;;
21894;SDS011;11112;51.270;7.224;2023-04-07T09:53:06;11.13;;;7.90;;
21894;SDS011;11112;51.270;7.224;2023-04-07T09:55:33;8.55;;;6.18;;
21894;SDS011;11112;51.270;7.224;2023-04-07T09:58:08;8.73;;;6.03;;
21894;SDS011;11112;51.270;7.224;2023-04-07T10:00:39;8.57;;;6.35;;
21894;SDS011;11112;51.270;7.224;2023-04-07T10:03:08;9.15;;;6.40;;
21894;SDS011;11112;51.270;7.224;2023-04-07T10:05:37;10.95;;;7.28;;
21894;SDS011;11112;51.270;7.224;2023-04-07T10:08:08;10.57;;;7.13;;
21894;SDS011;11112;51.270;7.224;2023-04-07T10:10:38;10.48;;;7.47;;
21894;SDS011;11112;51.270;7.224;2023-04-07T10:13:09;10.43;;;7.50;;
21894;SDS011;11112;51.270;7.224;2023-04-07T10:15:38;10.77;;;7.50;;
21894;SDS011;11112;51.270;7.224;2023-04-07T10:18:05;10.98;;;8.02;;
21894;SDS011;11112;51.270;7.224;2023-04-07T10:20:34;11.93;;;8.32;;
21894;SDS011;11112;51.270;7.224;2023-04-07T10:23:10;13.40;;;9.27;;
21894;SDS011;11112;51.270;7.224;2023-04-07T10:25:42;12.63;;;9.23;;
21894;SDS011;11112;51.270;7.224;2023-04-07T10:28:15;15.18;;;9.43;;
21894;SDS011;11112;51.270;7.224;2023-04-07T10:30:46;12.63;;;9.02;;
21894;SDS011;11112;51.270;7.224;2023-04-07T10:33:14;9.55;;;7.75;;
21894;SDS011;11112;51.270;7.224;2023-04-07T10:36:01;11.55;;;8.13;;
21894;SDS011;11112;51.270;7.224;2023-04-07T10:38:32;11.30;;;8.32;;
21894;SDS011;11112;51.270;7.224;2023-04-07T10:41:00;13.90;;;9.80;;
21894;SDS011;11112;51.270;7.224;2023-04-07T10:44:00;12.27;;;8.70;;
21894;SDS011;11112;51.270;7.224;2023-04-07T10:49:33;13.00;;;9.13;;
21894;SDS011;11112;51.270;7.224;2023-04-07T10:54:48;13.07;;;9.55;;
21894;SDS011;11112;51.270;7.224;2023-04-07T10:58:16;12.55;;;9.27;;
21894;SDS011;11112;51.270;7.224;2023-04-07T11:06:35;10.63;;;7.50;;
21894;SDS011;11112;51.270;7.224;2023-04-07T11:09:18;8.70;;;7.03;;
21894;SDS011;11112;51.270;7.224;2023-04-07T11:14:23;9.77;;;7.80;;
21894;SDS011;11112;51.270;7.224;2023-04-07T11:16:55;10.02;;;8.02;;
21894;SDS011;11112;51.270;7.224;2023-04-07T11:19:27;10.95;;;8.13;;
21894;SDS011;11112;51.270;7.224;2023-04-07T11:24:44;10.35;;;8.52;;
21894;SDS011;11112;51.270;7.224;2023-04-07T11:27:13;12.82;;;9.30;;
21894;SDS011;11112;51.270;7.224;2023-04-07T11:29:45;13.00;;;9.57;;
21894;SDS011;11112;51.270;7.224;2023-04-07T11:35:04;11.50;;;9.40;;
21894;SDS011;11112;51.270;7.224;2023-04-07T11:37:33;12.55;;;9.93;;
21894;SDS011;11112;51.270;7.224;2023-04-07T11:40:04;14.25;;;10.20;;
21894;SDS011;11112;51.270;7.224;2023-04-07T11:42:41;13.32;;;10.38;;
21894;SDS011;11112;51.270;7.224;2023-04-07T11:45:20;14.75;;;10.50;;
21894;SDS011;11112;51.270;7.224;2023-04-07T11:47:52;14.48;;;10.50;;
21894;SDS011;11112;51.270;7.224;2023-04-07T11:53:07;16.55;;;11.85;;
21894;SDS011;11112;51.270;7.224;2023-04-07T11:55:42;15.65;;;12.23;;
21894;SDS011;11112;51.270;7.224;2023-04-07T11:58:11;16.48;;;12.60;;
21894;SDS011;11112;51.270;7.224;2023-04-07T12:00:51;15.98;;;12.73;;
21894;SDS011;11112;51.270;7.224;2023-04-07T12:03:26;17.58;;;13.98;;
21894;SDS011;11112;51.270;7.224;2023-04-07T12:05:53;18.98;;;14.10;;
21894;SDS011;11112;51.270;7.224;2023-04-07T12:08:29;18.65;;;14.18;;
21894;SDS011;11112;51.270;7.224;2023-04-07T12:11:04;19.77;;;14.02;;
21894;SDS011;11112;51.270;7.224;2023-04-07T12:13:33;17.83;;;13.50;;
21894;SDS011;11112;51.270;7.224;2023-04-07T12:16:01;21.50;;;15.15;;
21894;SDS011;11112;51.270;7.224;2023-04-07T12:18:31;18.90;;;15.18;;
21894;SDS011;11112;51.270;7.224;2023-04-07T12:20:58;20.73;;;15.27;;
21894;SDS011;11112;51.270;7.224;2023-04-07T12:23:27;19.52;;;15.25;;
21894;SDS011;11112;51.270;7.224;2023-04-07T12:25:58;23.23;;;16.98;;
21894;SDS011;11112;51.270;7.224;2023-04-07T12:28:37;21.80;;;16.55;;
21894;SDS011;11112;51.270;7.224;2023-04-07T12:31:10;22.50;;;16.35;;
21894;SDS011;11112;51.270;7.224;2023-04-07T12:33:43;23.70;;;17.48;;
21894;SDS011;11112;51.270;7.224;2023-04-07T12:36:14;23.02;;;17.58;;
21894;SDS011;11112;51.270;7.224;2023-04-07T12:38:51;24.60;;;18.05;;
21894;SDS011;11112;51.270;7.224;2023-04-07T12:41:19;24.75;;;17.92;;
21894;SDS011;11112;51.270;7.224;2023-04-07T12:43:50;22.75;;;17.48;;
21894;SDS011;11112;51.270;7.224;2023-04-07T12:46:19;21.27;;;15.98;;
21894;SDS011;11112;51.270;7.224;2023-04-07T12:48:54;23.30;;;17.00;;
21894;SDS011;11112;51.270;7.224;2023-04-07T12:51:21;21.73;;;16.10;;
21894;SDS011;11112;51.270;7.224;2023-04-07T12:53:49;21.95;;;16.38;;
21894;SDS011;11112;51.270;7.224;2023-04-07T12:56:18;22.83;;;17.17;;
21894;SDS011;11112;51.270;7.224;2023-04-07T12:58:46;22.80;;;17.70;;
21894;SDS011;11112;51.270;7.224;2023-04-07T13:01:17;25.05;;;18.75;;
21894;SDS011;11112;51.270;7.224;2023-04-07T13:03:46;23.92;;;18.17;;
21894;SDS011;11112;51.270;7.224;2023-04-07T13:06:18;26.27;;;19.40;;
21894;SDS011;11112;51.270;7.224;2023-04-07T13:08:46;25.10;;;19.58;;
21894;SDS011;11112;51.270;7.224;2023-04-07T13:11:15;24.25;;;18.95;;
21894;SDS011;11112;51.270;7.224;2023-04-07T13:13:42;23.48;;;18.33;;
21894;SDS011;11112;51.270;7.224;2023-04-07T13:16:11;25.70;;;19.13;;
21894;SDS011;11112;51.270;7.224;2023-04-07T13:18:38;22.80;;;17.85;;
21894;SDS011;11112;51.270;7.224;2023-04-07T13:21:13;26.67;;;19.25;;
21894;SDS011;11112;51.270;7.224;2023-04-07T13:23:55;24.73;;;17.95;;
21894;SDS011;11112;51.270;7.224;2023-04-07T13:26:34;25.60;;;18.75;;
21894;SDS011;11112;51.270;7.224;2023-04-07T13:29:05;24.33;;;18.02;;
21894;SDS011;11112;51.270;7.224;2023-04-07T13:31:34;21.50;;;17.50;;
21894;SDS011;11112;51.270;7.224;2023-04-07T13:34:12;23.75;;;18.30;;
21894;SDS011;11112;51.270;7.224;2023-04-07T13:36:51;22.67;;;18.02;;
21894;SDS011;11112;51.270;7.224;2023-04-07T13:39:32;22.00;;;18.00;;
21894;SDS011;11112;51.270;7.224;2023-04-07T13:42:03;20.90;;;16.90;;
21894;SDS011;11112;51.270;7.224;2023-04-07T13:44:40;23.20;;;17.63;;
21894;SDS011;11112;51.270;7.224;2023-04-07T13:47:12;23.30;;;17.50;;
21894;SDS011;11112;51.270;7.224;2023-04-07T13:49:43;22.70;;;18.25;;
21894;SDS011;11112;51.270;7.224;2023-04-07T13:52:15;20.98;;;17.17;;
21894;SDS011;11112;51.270;7.224;2023-04-07T13:54:44;22.60;;;18.02;;
21894;SDS011;11112;51.270;7.224;2023-04-07T13:57:11;23.20;;;18.17;;
21894;SDS011;11112;51.270;7.224;2023-04-07T13:59:44;25.52;;;19.67;;
21894;SDS011;11112;51.270;7.224;2023-04-07T14:02:19;22.52;;;17.80;;
21894;SDS011;11112;51.270;7.224;2023-04-07T14:04:52;21.75;;;16.90;;
21894;SDS011;11112;51.270;7.224;2023-04-07T14:07:25;20.38;;;15.70;;
21894;SDS011;11112;51.270;7.224;2023-04-07T14:09:53;16.85;;;13.75;;
21894;SDS011;11112;51.270;7.224;2023-04-07T14:12:22;12.20;;;9.75;;
21894;SDS011;11112;51.270;7.224;2023-04-07T14:14:50;12.98;;;9.85;;
21894;SDS011;11112;51.270;7.224;2023-04-07T14:17:19;12.65;;;9.57;;
21894;SDS011;11112;51.270;7.224;2023-04-07T14:19:46;12.93;;;9.68;;
21894;SDS011;11112;51.270;7.224;2023-04-07T14:22:16;14.38;;;9.10;;
21894;SDS011;11112;51.270;7.224;2023-04-07T14:24:46;12.20;;;9.18;;
21894;SDS011;11112;51.270;7.224;2023-04-07T14:27:13;10.02;;;8.35;;
21894;SDS011;11112;51.270;7.224;2023-04-07T14:29:45;11.10;;;9.10;;
21894;SDS011;11112;51.270;7.224;2023-04-07T14:32:19;12.27;;;9.07;;
21894;SDS011;11112;51.270;7.224;2023-04-07T14:34:47;9.77;;;7.95;;
21894;SDS011;11112;51.270;7.224;2023-04-07T14:37:20;8.52;;;6.70;;
21894;SDS011;11112;51.270;7.224;2023-04-07T14:39:53;8.20;;;6.70;;
21894;SDS011;11112;51.270;7.224;2023-04-07T14:42:20;8.40;;;5.75;;
21894;SDS011;11112;51.270;7.224;2023-04-07T14:44:49;8.20;;;5.97;;
21894;SDS011;11112;51.270;7.224;2023-04-07T14:47:17;8.07;;;6.05;;
21894;SDS011;11112;51.270;7.224;2023-04-07T14:49:49;8.88;;;6.72;;
21894;SDS011;11112;51.270;7.224;2023-04-07T14:52:17;8.60;;;6.30;;
21894;SDS011;11112;51.270;7.224;2023-04-07T14:54:45;7.43;;;5.50;;
21894;SDS011;11112;51.270;7.224;2023-04-07T14:57:22;7.55;;;6.18;;
21894;SDS011;11112;51.270;7.224;2023-04-07T14:59:50;7.53;;;4.32;;
21894;SDS011;11112;51.270;7.224;2023-04-07T15:02:19;4.57;;;3.40;;
21894;SDS011;11112;51.270;7.224;2023-04-07T15:04:49;4.75;;;3.70;;
21894;SDS011;11112;51.270;7.224;2023-04-07T15:07:17;4.13;;;3.63;;
21894;SDS011;11112;51.270;7.224;2023-04-07T15:09:45;5.15;;;3.97;;
21894;SDS011;11112;51.270;7.224;2023-04-07T15:12:13;4.90;;;4.05;;
21894;SDS011;11112;51.270;7.224;2023-04-07T15:14:43;4.60;;;4.10;;